Time;durP1;ratioP1;P1;durP2;ratioP2;P2;SDS_P1;SDS_P2;PMS_P1;PMS_P2;Temp;Humidity;BMP_temperature;BMP_pressure;BME280_temperature;BME280_humidity;BME280_pressure;Samples;Min_cycle;Max_cycle;Signal;HPM_P1;HPM_P2
2021/01/10 00:00:16;;;;;;;36.30;22.42;;;;;;;;;;4982342;28;20188;-79
2021/01/10 00:02:42;;;;;;;36.47;23.10;;;;;;;;;;4989712;28;20271;-79
2021/01/10 00:05:09;;;;;;;32.47;22.13;;;;;;;;;;4986121;28;20192;-79
2021/01/10 00:07:35;;;;;;;38.17;20.75;;;;;;;;;;4994586;28;20223;-78
2021/01/10 00:10:01;;;;;;;32.90;22.10;;;;;;;;;;5020641;28;20179;-78
2021/01/10 00:12:27;;;;;;;40.60;23.40;;;;;;;;;;5000800;28;20190;-78
2021/01/10 00:14:54;;;;;;;32.20;23.13;;;;;;;;;;4989176;28;20270;-78
2021/01/10 00:17:20;;;;;;;39.08;22.67;;;;;;;;;;5017606;28;20233;-78
2021/01/10 00:19:47;;;;;;;41.38;23.80;;;;;;;;;;4999578;28;20247;-79
2021/01/10 00:22:14;;;;;;;38.10;22.55;;;;;;;;;;5004532;28;20194;-78
2021/01/10 00:24:43;;;;;;;40.95;22.88;;;;;;;;;;4999604;28;20634;-78
2021/01/10 00:27:13;;;;;;;32.55;21.33;;;;;;;;;;4996315;28;20219;-78
2021/01/10 00:29:39;;;;;;;39.78;22.58;;;;;;;;;;4999544;28;20251;-78
2021/01/10 00:32:06;;;;;;;29.60;19.95;;;;;;;;;;4989214;28;20184;-78
2021/01/10 00:34:32;;;;;;;38.55;21.20;;;;;;;;;;4986263;28;20180;-78
2021/01/10 00:36:58;;;;;;;40.25;21.42;;;;;;;;;;4999179;28;20190;-78
2021/01/10 00:39:24;;;;;;;31.90;22.25;;;;;;;;;;5000021;28;20185;-78
2021/01/10 00:41:50;;;;;;;37.07;21.27;;;;;;;;;;4998229;28;20278;-78
2021/01/10 00:44:17;;;;;;;31.38;19.60;;;;;;;;;;4980530;28;20428;-78
2021/01/10 00:46:43;;;;;;;36.95;21.77;;;;;;;;;;4987403;28;20210;-78
2021/01/10 00:49:09;;;;;;;35.30;20.90;;;;;;;;;;4992667;28;20219;-78
2021/01/10 00:51:34;;;;;;;37.75;21.92;;;;;;;;;;4994426;28;20179;-78
2021/01/10 00:54:00;;;;;;;32.90;21.50;;;;;;;;;;4998317;28;20242;-78
2021/01/10 00:56:26;;;;;;;35.27;21.07;;;;;;;;;;4992054;28;20967;-78
2021/01/10 00:58:52;;;;;;;44.07;24.33;;;;;;;;;;4982526;28;20533;-78
2021/01/10 01:01:18;;;;;;;38.60;23.05;;;;;;;;;;4982769;28;20446;-78
2021/01/10 01:03:44;;;;;;;35.45;20.50;;;;;;;;;;4990163;28;20180;-78
2021/01/10 01:06:11;;;;;;;29.53;20.00;;;;;;;;;;4989362;28;20203;-78
2021/01/10 01:08:37;;;;;;;39.58;20.95;;;;;;;;;;4997070;28;20450;-78
2021/01/10 01:11:03;;;;;;;34.28;20.20;;;;;;;;;;4998926;28;20202;-78
2021/01/10 01:13:29;;;;;;;36.28;22.55;;;;;;;;;;4979664;28;20597;-78
2021/01/10 01:15:55;;;;;;;26.33;19.00;;;;;;;;;;4978769;28;20180;-78
2021/01/10 01:18:21;;;;;;;36.17;20.90;;;;;;;;;;4992421;28;20453;-78
2021/01/10 01:20:47;;;;;;;35.57;23.10;;;;;;;;;;4990170;28;20902;-78
2021/01/10 01:23:13;;;;;;;35.10;21.17;;;;;;;;;;4980255;28;20451;-78
2021/01/10 01:25:39;;;;;;;34.40;21.10;;;;;;;;;;4990119;28;20835;-78
2021/01/10 01:28:06;;;;;;;42.10;20.88;;;;;;;;;;5015300;28;20445;-79
2021/01/10 01:30:32;;;;;;;34.22;20.08;;;;;;;;;;5023147;28;20181;-78
2021/01/10 01:32:58;;;;;;;33.55;20.58;;;;;;;;;;4993983;28;20239;-78
2021/01/10 01:35:24;;;;;;;31.73;19.13;;;;;;;;;;4992329;28;20203;-79
2021/01/10 01:37:50;;;;;;;35.58;22.27;;;;;;;;;;4991378;28;20211;-79
2021/01/10 01:40:16;;;;;;;38.47;22.30;;;;;;;;;;4984283;28;20188;-78
2021/01/10 01:42:42;;;;;;;40.58;22.98;;;;;;;;;;5009022;28;20515;-79
2021/01/10 01:45:08;;;;;;;42.10;23.20;;;;;;;;;;5016719;28;20263;-79
2021/01/10 01:47:35;;;;;;;37.22;22.88;;;;;;;;;;5005362;28;20463;-78
2021/01/10 01:50:02;;;;;;;39.83;22.80;;;;;;;;;;4997296;28;20183;-78
2021/01/10 01:52:28;;;;;;;35.42;20.23;;;;;;;;;;5006084;28;20171;-79
2021/01/10 01:54:54;;;;;;;32.77;21.07;;;;;;;;;;5004062;28;21147;-78
2021/01/10 01:57:21;;;;;;;35.03;20.35;;;;;;;;;;4993418;28;20811;-79
2021/01/10 01:59:47;;;;;;;33.38;20.83;;;;;;;;;;4998677;28;20198;-79
2021/01/10 02:02:13;;;;;;;42.30;21.92;;;;;;;;;;4986065;28;20255;-78
2021/01/10 02:05:11;;;;;;;38.67;22.75;;;;;;;;;;4994249;28;20188;-78
2021/01/10 02:07:58;;;;;;;37.72;22.00;;;;;;;;;;4999750;28;20220;-79
2021/01/10 02:10:30;;;;;;;33.85;20.13;;;;;;;;;;5004868;28;20171;-79
2021/01/10 02:13:00;;;;;;;42.65;21.83;;;;;;;;;;5005347;28;20172;-79
2021/01/10 02:15:28;;;;;;;35.70;21.45;;;;;;;;;;4990830;28;20199;-79
2021/01/10 02:17:56;;;;;;;36.50;21.02;;;;;;;;;;5002032;28;20211;-79
2021/01/10 02:20:32;;;;;;;30.17;21.02;;;;;;;;;;4999875;28;20197;-79
2021/01/10 02:23:05;;;;;;;35.53;22.52;;;;;;;;;;4986737;28;20184;-79
2021/01/10 02:25:32;;;;;;;38.47;23.08;;;;;;;;;;5006192;28;20199;-79
2021/01/10 02:27:59;;;;;;;33.22;21.38;;;;;;;;;;5006207;28;20607;-78
2021/01/10 02:30:25;;;;;;;42.60;22.23;;;;;;;;;;4990309;28;20195;-78
2021/01/10 02:32:53;;;;;;;43.33;22.58;;;;;;;;;;4987029;28;20191;-78
2021/01/10 02:35:21;;;;;;;33.50;21.05;;;;;;;;;;4998574;28;20666;-78
2021/01/10 02:38:03;;;;;;;38.95;23.92;;;;;;;;;;4977948;28;20196;-78
2021/01/10 02:40:34;;;;;;;42.60;22.25;;;;;;;;;;4978487;28;20179;-78
2021/01/10 02:43:10;;;;;;;37.40;22.55;;;;;;;;;;4977197;28;20193;-79
2021/01/10 02:45:38;;;;;;;39.85;25.95;;;;;;;;;;4990303;28;20244;-78
2021/01/10 02:48:04;;;;;;;45.03;24.23;;;;;;;;;;4994884;28;20239;-78
2021/01/10 02:50:31;;;;;;;53.85;24.02;;;;;;;;;;4986505;28;20261;-78
2021/01/10 02:52:57;;;;;;;43.22;23.05;;;;;;;;;;4975696;28;20578;-78
2021/01/10 02:55:23;;;;;;;48.83;23.58;;;;;;;;;;4994214;28;20187;-78
2021/01/10 02:58:00;;;;;;;33.53;21.13;;;;;;;;;;4987582;28;20207;-78
2021/01/10 03:00:27;;;;;;;40.97;22.40;;;;;;;;;;4992731;28;20690;-78
2021/01/10 03:02:54;;;;;;;39.88;21.98;;;;;;;;;;4977842;28;20227;-78
2021/01/10 03:05:21;;;;;;;42.03;22.60;;;;;;;;;;4984113;28;20174;-78
2021/01/10 03:07:47;;;;;;;37.65;23.83;;;;;;;;;;4983568;28;20207;-78
2021/01/10 03:10:14;;;;;;;38.03;23.08;;;;;;;;;;4988602;28;20231;-78
2021/01/10 03:12:40;;;;;;;38.83;21.27;;;;;;;;;;4996817;28;20188;-78
2021/01/10 03:15:07;;;;;;;39.22;23.02;;;;;;;;;;4983469;28;20183;-78
2021/01/10 03:17:46;;;;;;;35.33;21.50;;;;;;;;;;4993642;28;20708;-78
2021/01/10 03:20:13;;;;;;;46.10;24.17;;;;;;;;;;4988415;28;20206;-78
2021/01/10 03:22:39;;;;;;;32.50;21.20;;;;;;;;;;4977330;28;20168;-78
2021/01/10 03:25:07;;;;;;;41.45;22.27;;;;;;;;;;4988383;28;20203;-79
2021/01/10 03:27:33;;;;;;;40.50;24.70;;;;;;;;;;4982971;28;20212;-78
2021/01/10 03:30:00;;;;;;;34.75;22.88;;;;;;;;;;4983527;28;20179;-78
2021/01/10 03:32:26;;;;;;;34.15;24.20;;;;;;;;;;4991178;28;20179;-78
2021/01/10 03:34:52;;;;;;;36.07;20.37;;;;;;;;;;4980592;28;20701;-78
2021/01/10 03:37:18;;;;;;;39.58;21.25;;;;;;;;;;4980556;28;20439;-78
2021/01/10 03:39:45;;;;;;;39.73;22.40;;;;;;;;;;4985439;28;20234;-78
2021/01/10 03:42:11;;;;;;;43.15;21.00;;;;;;;;;;4995071;28;20442;-78
2021/01/10 03:44:37;;;;;;;34.90;20.55;;;;;;;;;;4983455;28;20246;-78
2021/01/10 03:47:03;;;;;;;45.60;22.57;;;;;;;;;;4979118;28;20211;-79
2021/01/10 03:49:29;;;;;;;38.90;21.35;;;;;;;;;;5007533;23;20498;-77
2021/01/10 03:51:55;;;;;;;34.47;20.60;;;;;;;;;;4994015;28;20183;-77
2021/01/10 03:54:21;;;;;;;36.17;20.75;;;;;;;;;;4993802;28;20258;-77
2021/01/10 03:56:47;;;;;;;37.00;22.10;;;;;;;;;;4990046;28;21058;-77
2021/01/10 03:59:13;;;;;;;45.78;22.85;;;;;;;;;;4994085;28;20439;-76
2021/01/10 04:01:39;;;;;;;44.53;21.23;;;;;;;;;;4994058;28;20175;-77
2021/01/10 04:04:05;;;;;;;28.33;21.37;;;;;;;;;;4993355;28;20425;-77
2021/01/10 04:06:31;;;;;;;41.45;22.95;;;;;;;;;;4993546;28;21035;-77
2021/01/10 04:08:57;;;;;;;41.88;22.35;;;;;;;;;;4993601;28;20207;-76
2021/01/10 04:11:23;;;;;;;30.58;19.60;;;;;;;;;;5000316;28;20179;-76
2021/01/10 04:13:49;;;;;;;32.35;21.10;;;;;;;;;;4992471;28;20187;-76
2021/01/10 04:16:15;;;;;;;39.78;23.77;;;;;;;;;;4992822;28;20228;-77
2021/01/10 04:18:42;;;;;;;43.97;20.98;;;;;;;;;;4993254;28;20203;-77
2021/01/10 04:21:08;;;;;;;38.70;22.13;;;;;;;;;;4993138;28;20190;-77
2021/01/10 04:23:34;;;;;;;44.30;24.42;;;;;;;;;;4993910;28;20179;-77
2021/01/10 04:26:00;;;;;;;46.53;21.45;;;;;;;;;;4981609;28;20203;-77
2021/01/10 04:28:26;;;;;;;42.78;20.77;;;;;;;;;;4992602;28;20203;-76
2021/01/10 04:30:52;;;;;;;37.93;23.47;;;;;;;;;;4994156;28;20187;-76
2021/01/10 04:33:18;;;;;;;42.17;23.23;;;;;;;;;;4984636;28;20427;-77
2021/01/10 04:35:44;;;;;;;34.33;20.73;;;;;;;;;;4993234;28;20191;-77
2021/01/10 04:38:10;;;;;;;47.00;23.57;;;;;;;;;;4993434;28;20195;-76
2021/01/10 04:40:36;;;;;;;34.97;20.92;;;;;;;;;;4993405;28;20407;-76
2021/01/10 04:43:02;;;;;;;31.70;20.77;;;;;;;;;;4991698;28;20186;-77
2021/01/10 04:45:28;;;;;;;36.50;21.67;;;;;;;;;;4992711;28;20470;-76
2021/01/10 04:47:54;;;;;;;34.55;21.15;;;;;;;;;;4975872;28;20533;-77
2021/01/10 04:50:22;;;;;;;43.08;21.63;;;;;;;;;;4993010;28;20638;-77
2021/01/10 04:52:50;;;;;;;33.42;21.13;;;;;;;;;;4993227;28;20568;-77
2021/01/10 04:55:16;;;;;;;35.22;20.63;;;;;;;;;;4991507;28;20211;-77
2021/01/10 04:57:42;;;;;;;36.53;21.48;;;;;;;;;;5003579;28;20235;-77
2021/01/10 05:00:12;;;;;;;28.25;18.00;;;;;;;;;;4973039;28;20509;-76
2021/01/10 05:02:48;;;;;;;43.20;23.52;;;;;;;;;;4987120;28;20187;-76
2021/01/10 05:05:14;;;;;;;34.08;21.00;;;;;;;;;;4989699;28;20186;-76
2021/01/10 05:07:43;;;;;;;39.40;19.75;;;;;;;;;;4991337;28;20241;-76
2021/01/10 05:10:09;;;;;;;36.47;20.65;;;;;;;;;;4990840;28;20558;-76
2021/01/10 05:12:36;;;;;;;40.83;19.95;;;;;;;;;;4991238;28;20184;-76
2021/01/10 05:15:01;;;;;;;33.97;20.13;;;;;;;;;;4989122;28;20194;-76
2021/01/10 05:17:27;;;;;;;41.20;22.30;;;;;;;;;;4989286;28;20653;-76
2021/01/10 05:19:54;;;;;;;39.70;22.67;;;;;;;;;;4990179;28;20431;-76
2021/01/10 05:22:20;;;;;;;41.47;21.42;;;;;;;;;;4991185;28;20430;-76
2021/01/10 05:24:49;;;;;;;37.17;20.42;;;;;;;;;;4989738;28;20198;-76
2021/01/10 05:27:15;;;;;;;34.05;20.23;;;;;;;;;;4990551;28;20212;-76
2021/01/10 05:29:46;;;;;;;34.33;18.73;;;;;;;;;;4990052;28;20206;-76
2021/01/10 05:32:12;;;;;;;41.83;21.42;;;;;;;;;;4989983;28;21830;-76
2021/01/10 05:34:38;;;;;;;35.20;21.08;;;;;;;;;;4988265;28;20180;-76
2021/01/10 05:37:14;;;;;;;30.35;18.48;;;;;;;;;;4991138;28;20183;-76
2021/01/10 05:39:44;;;;;;;35.53;22.30;;;;;;;;;;4990802;28;20681;-76
2021/01/10 05:42:10;;;;;;;29.08;19.85;;;;;;;;;;4991102;28;20195;-76
2021/01/10 05:44:39;;;;;;;36.15;20.90;;;;;;;;;;4988215;28;20199;-76
2021/01/10 05:47:09;;;;;;;40.72;21.02;;;;;;;;;;4971669;28;20208;-76
2021/01/10 05:49:35;;;;;;;40.95;24.20;;;;;;;;;;4988806;28;20436;-78
2021/01/10 05:52:08;;;;;;;34.28;20.92;;;;;;;;;;4991143;28;20168;-78
2021/01/10 05:54:35;;;;;;;40.45;21.42;;;;;;;;;;4991824;28;20175;-78
2021/01/10 05:57:02;;;;;;;34.20;21.88;;;;;;;;;;5010435;28;20594;-78
2021/01/10 05:59:29;;;;;;;34.28;19.95;;;;;;;;;;4992538;28;20204;-78
2021/01/10 06:01:55;;;;;;;40.40;20.90;;;;;;;;;;4990982;28;20200;-78
2021/01/10 06:04:22;;;;;;;32.50;18.57;;;;;;;;;;4990154;28;20592;-78
2021/01/10 06:06:48;;;;;;;36.92;21.63;;;;;;;;;;4990877;28;20851;-78
2021/01/10 06:09:14;;;;;;;31.77;19.97;;;;;;;;;;4990731;28;20200;-78
2021/01/10 06:11:40;;;;;;;38.67;19.57;;;;;;;;;;4994637;28;20497;-78
2021/01/10 06:14:06;;;;;;;36.63;20.10;;;;;;;;;;4990007;28;20427;-79
2021/01/10 06:16:34;;;;;;;34.72;21.33;;;;;;;;;;4994545;28;20502;-78
2021/01/10 06:19:04;;;;;;;37.35;20.45;;;;;;;;;;4992428;28;20214;-78
2021/01/10 06:21:31;;;;;;;41.47;21.35;;;;;;;;;;4995092;28;20183;-78
2021/01/10 06:24:00;;;;;;;37.05;21.73;;;;;;;;;;4994696;28;20191;-78
2021/01/10 06:26:28;;;;;;;36.38;22.08;;;;;;;;;;4994678;28;20241;-78
2021/01/10 06:28:58;;;;;;;34.70;20.95;;;;;;;;;;4994376;28;20254;-78
2021/01/10 06:31:25;;;;;;;29.88;19.13;;;;;;;;;;4994625;28;20172;-78
2021/01/10 06:33:55;;;;;;;33.63;21.77;;;;;;;;;;4992647;28;20180;-79
2021/01/10 06:36:22;;;;;;;37.17;21.98;;;;;;;;;;4995648;28;20216;-78
2021/01/10 06:38:50;;;;;;;36.28;21.67;;;;;;;;;;4994758;28;20207;-78
2021/01/10 06:41:28;;;;;;;38.72;22.42;;;;;;;;;;4996701;28;20259;-77
2021/01/10 06:44:03;;;;;;;33.20;20.48;;;;;;;;;;5007651;28;20814;-76
2021/01/10 06:46:29;;;;;;;43.40;23.23;;;;;;;;;;5008995;28;20218;-78
2021/01/10 06:48:55;;;;;;;37.77;22.77;;;;;;;;;;5009054;28;20290;-77
2021/01/10 06:51:31;;;;;;;34.63;22.42;;;;;;;;;;5009582;28;20431;-79
2021/01/10 06:53:57;;;;;;;39.60;23.15;;;;;;;;;;5009374;28;20175;-78
2021/01/10 06:56:23;;;;;;;37.95;22.23;;;;;;;;;;5004965;28;20188;-77
2021/01/10 06:59:02;;;;;;;37.95;20.58;;;;;;;;;;5010116;28;20243;-76
2021/01/10 07:01:47;;;;;;;41.03;22.92;;;;;;;;;;4988601;28;20180;-77
2021/01/10 07:04:13;;;;;;;45.58;23.20;;;;;;;;;;4999473;28;20205;-78
2021/01/10 07:06:44;;;;;;;32.00;20.07;;;;;;;;;;5016589;28;20215;-77
2021/01/10 07:09:10;;;;;;;34.53;21.85;;;;;;;;;;5009616;28;21004;-76
2021/01/10 07:11:36;;;;;;;41.17;22.92;;;;;;;;;;5009272;28;20184;-77
2021/01/10 07:14:02;;;;;;;37.03;22.58;;;;;;;;;;4999798;28;20216;-78
2021/01/10 07:16:28;;;;;;;34.80;22.07;;;;;;;;;;4995734;28;20203;-78
2021/01/10 07:18:58;;;;;;;40.03;23.48;;;;;;;;;;4994726;28;20450;-79
2021/01/10 07:21:30;;;;;;;35.90;21.90;;;;;;;;;;4994538;28;20175;-78
2021/01/10 07:26:50;;;;;;;39.05;21.05;;;;;;;;;;4995213;28;20300;-78
2021/01/10 07:29:26;;;;;;;32.78;19.55;;;;;;;;;;4990787;28;20199;-79
2021/01/10 07:31:59;;;;;;;30.02;20.38;;;;;;;;;;4993301;28;20274;-78
2021/01/10 07:34:26;;;;;;;32.45;19.65;;;;;;;;;;4996152;28;20186;-79
2021/01/10 07:36:53;;;;;;;33.28;20.45;;;;;;;;;;5000276;28;20202;-78
2021/01/10 07:39:24;;;;;;;37.40;21.23;;;;;;;;;;4998239;28;20203;-79
2021/01/10 07:41:50;;;;;;;32.70;20.27;;;;;;;;;;4995158;28;20172;-78
2021/01/10 07:44:21;;;;;;;34.45;21.85;;;;;;;;;;4994316;28;20212;-78
2021/01/10 07:46:59;;;;;;;29.45;22.23;;;;;;;;;;4994554;28;20206;-78
2021/01/10 07:49:26;;;;;;;38.00;21.88;;;;;;;;;;5010559;28;20214;-78
2021/01/10 07:51:52;;;;;;;37.05;21.73;;;;;;;;;;5008288;28;20266;-78
2021/01/10 07:54:38;;;;;;;41.42;22.90;;;;;;;;;;4992652;28;20282;-80
2021/01/10 07:57:26;;;;;;;37.20;23.25;;;;;;;;;;4989760;28;20187;-78
2021/01/10 08:00:08;;;;;;;32.78;21.77;;;;;;;;;;4994165;28;20322;-78
2021/01/10 08:02:49;;;;;;;42.00;25.70;;;;;;;;;;4993585;28;20175;-78
2021/01/10 08:05:16;;;;;;;45.05;30.23;;;;;;;;;;4993645;28;20717;-78
2021/01/10 08:07:46;;;;;;;48.90;29.67;;;;;;;;;;4994052;28;20234;-78
2021/01/10 08:10:13;;;;;;;47.65;28.08;;;;;;;;;;4993869;28;20522;-78
2021/01/10 08:12:40;;;;;;;40.95;29.52;;;;;;;;;;4994079;28;20171;-79
2021/01/10 08:15:06;;;;;;;47.75;32.22;;;;;;;;;;4992900;28;20708;-79
2021/01/10 08:17:32;;;;;;;38.60;29.67;;;;;;;;;;4993780;28;20575;-79
2021/01/10 08:20:00;;;;;;;40.43;29.70;;;;;;;;;;4992609;28;20188;-78
2021/01/10 08:22:26;;;;;;;43.80;29.50;;;;;;;;;;4994016;28;20806;-78
2021/01/10 08:24:53;;;;;;;38.50;26.83;;;;;;;;;;5011339;28;20193;-79
2021/01/10 08:27:19;;;;;;;45.65;27.73;;;;;;;;;;4993918;28;20698;-78
2021/01/10 08:29:47;;;;;;;41.38;27.50;;;;;;;;;;4985101;28;20203;-78
2021/01/10 08:32:13;;;;;;;45.17;30.10;;;;;;;;;;4993754;28;20180;-78
2021/01/10 08:34:50;;;;;;;41.63;27.40;;;;;;;;;;4997459;28;20203;-78
2021/01/10 08:37:19;;;;;;;42.70;26.63;;;;;;;;;;5013273;28;20171;-78
2021/01/10 08:39:55;;;;;;;32.78;23.42;;;;;;;;;;5012510;28;20238;-78
2021/01/10 08:42:21;;;;;;;34.15;21.80;;;;;;;;;;4995268;28;20179;-78
2021/01/10 08:44:47;;;;;;;40.83;24.13;;;;;;;;;;5002766;28;20185;-78
2021/01/10 08:47:13;;;;;;;33.47;22.50;;;;;;;;;;4982360;28;20562;-78
2021/01/10 08:49:39;;;;;;;33.37;23.60;;;;;;;;;;4991943;28;20457;-78
2021/01/10 08:52:05;;;;;;;38.17;23.30;;;;;;;;;;4991195;28;20445;-78
2021/01/10 08:54:31;;;;;;;33.15;22.20;;;;;;;;;;5000451;28;20175;-77
2021/01/10 08:56:57;;;;;;;34.67;22.70;;;;;;;;;;5004363;28;20187;-78
2021/01/10 08:59:24;;;;;;;37.38;23.17;;;;;;;;;;5003868;28;20457;-77
2021/01/10 09:01:50;;;;;;;37.72;24.25;;;;;;;;;;5002877;28;20191;-76
2021/01/10 09:04:17;;;;;;;37.88;22.50;;;;;;;;;;5003829;28;20179;-77
2021/01/10 09:07:01;;;;;;;41.92;23.90;;;;;;;;;;4999967;28;20218;-78
2021/01/10 09:09:46;;;;;;;29.02;21.02;;;;;;;;;;5000347;28;20259;-76
2021/01/10 09:12:18;;;;;;;32.60;23.25;;;;;;;;;;4997390;28;20194;-78
2021/01/10 09:15:05;;;;;;;36.05;25.35;;;;;;;;;;4997799;28;20183;-78
2021/01/10 09:17:38;;;;;;;37.80;22.80;;;;;;;;;;4993112;28;20251;-76
2021/01/10 09:20:25;;;;;;;35.70;22.20;;;;;;;;;;4993401;28;20194;-74
2021/01/10 09:22:51;;;;;;;34.30;21.77;;;;;;;;;;4995093;28;20245;-77
2021/01/10 09:25:20;;;;;;;33.80;21.33;;;;;;;;;;4995642;28;20194;-76
2021/01/10 09:28:05;;;;;;;34.80;23.65;;;;;;;;;;5000325;28;20249;-76
2021/01/10 09:30:32;;;;;;;36.53;22.70;;;;;;;;;;5014572;28;20576;-78
2021/01/10 09:32:58;;;;;;;34.90;22.65;;;;;;;;;;5003101;28;20183;-78
2021/01/10 09:35:24;;;;;;;28.30;22.95;;;;;;;;;;5016865;28;20197;-76
2021/01/10 09:37:50;;;;;;;44.15;24.35;;;;;;;;;;5003185;28;20195;-76
2021/01/10 09:40:17;;;;;;;36.40;24.15;;;;;;;;;;4982195;28;20192;-76
2021/01/10 09:42:44;;;;;;;32.65;22.73;;;;;;;;;;4993490;28;20206;-76
2021/01/10 09:45:10;;;;;;;36.45;22.70;;;;;;;;;;5008875;28;20174;-75
2021/01/10 09:47:39;;;;;;;40.30;25.40;;;;;;;;;;4996772;28;20265;-76
2021/01/10 09:50:09;;;;;;;34.97;24.17;;;;;;;;;;5031635;22;20234;-77
2021/01/10 09:52:45;;;;;;;51.45;33.70;;;;;;;;;;5001142;28;20196;-78
2021/01/10 09:55:11;;;;;;;41.95;25.55;;;;;;;;;;5005567;28;20192;-77
2021/01/10 09:57:39;;;;;;;30.77;22.07;;;;;;;;;;4999477;28;20195;-78
2021/01/10 10:00:06;;;;;;;43.37;31.20;;;;;;;;;;5001434;28;20638;-78
2021/01/10 10:02:36;;;;;;;40.22;25.10;;;;;;;;;;5001631;28;20457;-77
2021/01/10 10:05:15;;;;;;;44.40;28.65;;;;;;;;;;4997538;28;20188;-77
2021/01/10 10:07:48;;;;;;;41.63;25.25;;;;;;;;;;5007763;28;20222;-77
2021/01/10 10:10:18;;;;;;;36.22;23.42;;;;;;;;;;5006474;28;20244;-78
2021/01/10 10:12:51;;;;;;;31.65;22.80;;;;;;;;;;5010664;28;20569;-77
2021/01/10 10:15:17;;;;;;;33.10;22.25;;;;;;;;;;5013393;28;20175;-77
2021/01/10 10:17:43;;;;;;;34.53;25.40;;;;;;;;;;5012391;28;20183;-77
2021/01/10 10:20:10;;;;;;;43.50;27.52;;;;;;;;;;5001733;28;20533;-77
2021/01/10 10:22:36;;;;;;;44.22;24.23;;;;;;;;;;5005628;28;20195;-77
2021/01/10 10:25:06;;;;;;;47.40;24.75;;;;;;;;;;5007983;28;20184;-78
2021/01/10 10:27:33;;;;;;;40.00;27.55;;;;;;;;;;5011067;28;20207;-78
2021/01/10 10:29:59;;;;;;;37.67;23.73;;;;;;;;;;5011964;28;20200;-77
2021/01/10 10:32:25;;;;;;;45.35;24.80;;;;;;;;;;5012012;28;20178;-78
2021/01/10 10:34:52;;;;;;;48.50;29.48;;;;;;;;;;5010534;28;20530;-77
2021/01/10 10:37:18;;;;;;;46.92;26.45;;;;;;;;;;5006209;28;20237;-78
2021/01/10 10:39:45;;;;;;;46.25;25.10;;;;;;;;;;5006167;28;20225;-78
2021/01/10 10:42:12;;;;;;;48.85;25.90;;;;;;;;;;5006643;28;20218;-78
2021/01/10 10:44:38;;;;;;;46.97;26.77;;;;;;;;;;5003285;28;20191;-77
2021/01/10 10:47:04;;;;;;;40.83;23.35;;;;;;;;;;5010795;28;20202;-78
2021/01/10 10:49:30;;;;;;;41.38;24.50;;;;;;;;;;5012402;28;20230;-78
2021/01/10 10:51:57;;;;;;;40.28;24.17;;;;;;;;;;5004836;28;20830;-78
2021/01/10 10:54:23;;;;;;;34.60;22.30;;;;;;;;;;5000560;28;20171;-78
2021/01/10 10:56:50;;;;;;;34.30;23.20;;;;;;;;;;5007446;28;20183;-78
2021/01/10 10:59:16;;;;;;;43.10;24.88;;;;;;;;;;5002077;28;20474;-77
2021/01/10 11:01:47;;;;;;;36.53;23.90;;;;;;;;;;5008058;28;20195;-77
2021/01/10 11:04:13;;;;;;;38.80;24.55;;;;;;;;;;5010049;28;20270;-77
2021/01/10 11:06:39;;;;;;;39.00;25.25;;;;;;;;;;5008752;28;20218;-77
2021/01/10 11:09:08;;;;;;;39.40;24.63;;;;;;;;;;5009387;28;20200;-78
2021/01/10 11:11:34;;;;;;;41.90;24.73;;;;;;;;;;5007036;28;20175;-78
2021/01/10 11:14:00;;;;;;;38.25;24.38;;;;;;;;;;4999418;28;20659;-77
2021/01/10 11:16:30;;;;;;;34.00;22.65;;;;;;;;;;4990614;28;20187;-78
2021/01/10 11:18:56;;;;;;;37.67;23.40;;;;;;;;;;5001170;28;20294;-78
2021/01/10 11:21:26;;;;;;;39.10;23.27;;;;;;;;;;5005476;28;20288;-78
2021/01/10 11:23:53;;;;;;;37.42;21.23;;;;;;;;;;5010293;28;20269;-74
2021/01/10 11:26:19;;;;;;;35.85;23.17;;;;;;;;;;4993231;28;20199;-74
2021/01/10 11:28:45;;;;;;;35.50;24.30;;;;;;;;;;4988376;28;20741;-74
2021/01/10 11:31:10;;;;;;;34.97;22.03;;;;;;;;;;4980637;28;20444;-75
2021/01/10 11:33:36;;;;;;;36.10;23.67;;;;;;;;;;5013149;28;20465;-75
2021/01/10 11:36:05;;;;;;;36.20;23.20;;;;;;;;;;4994722;28;20443;-75
2021/01/10 11:38:31;;;;;;;34.40;21.15;;;;;;;;;;4994290;28;20451;-76
2021/01/10 11:40:57;;;;;;;51.63;31.43;;;;;;;;;;5007812;28;20192;-74
2021/01/10 11:43:22;;;;;;;40.70;23.13;;;;;;;;;;4974918;28;20490;-76
2021/01/10 11:45:48;;;;;;;32.40;23.03;;;;;;;;;;4988003;28;20704;-77
2021/01/10 11:48:15;;;;;;;43.22;23.52;;;;;;;;;;4990192;28;20465;-77
2021/01/10 11:50:41;;;;;;;43.30;23.60;;;;;;;;;;4991994;28;20541;-76
2021/01/10 11:53:07;;;;;;;32.08;23.67;;;;;;;;;;5007476;28;20473;-75
2021/01/10 11:55:36;;;;;;;34.63;23.10;;;;;;;;;;5006025;28;20189;-77
2021/01/10 11:58:02;;;;;;;34.20;22.52;;;;;;;;;;5000092;28;20437;-76
2021/01/10 12:00:28;;;;;;;35.87;21.07;;;;;;;;;;5001571;28;20601;-77
2021/01/10 12:02:54;;;;;;;33.07;23.60;;;;;;;;;;4993683;28;20811;-77
2021/01/10 12:05:20;;;;;;;41.57;23.00;;;;;;;;;;4990037;28;20439;-77
2021/01/10 12:07:46;;;;;;;34.87;21.67;;;;;;;;;;5006298;28;20900;-77
2021/01/10 12:10:12;;;;;;;34.38;22.00;;;;;;;;;;5009192;28;20784;-77
2021/01/10 12:12:38;;;;;;;31.80;21.02;;;;;;;;;;4991676;28;20227;-77
2021/01/10 12:15:04;;;;;;;35.13;22.65;;;;;;;;;;4994069;28;20191;-74
2021/01/10 12:17:30;;;;;;;28.63;20.60;;;;;;;;;;4994493;28;20190;-76
2021/01/10 12:19:56;;;;;;;33.60;21.53;;;;;;;;;;4995122;28;20219;-77
2021/01/10 12:22:22;;;;;;;32.00;21.23;;;;;;;;;;4994820;28;20518;-75
2021/01/10 12:24:48;;;;;;;34.42;20.73;;;;;;;;;;4982324;28;20453;-77
2021/01/10 12:27:14;;;;;;;39.85;23.00;;;;;;;;;;4993864;28;20211;-77
2021/01/10 12:29:40;;;;;;;29.43;20.40;;;;;;;;;;4991955;28;20379;-78
2021/01/10 12:32:06;;;;;;;35.00;22.38;;;;;;;;;;4993245;28;20419;-77
2021/01/10 12:34:32;;;;;;;31.87;20.30;;;;;;;;;;4981446;28;20187;-76
2021/01/10 12:36:58;;;;;;;32.37;22.13;;;;;;;;;;4994114;28;20434;-75
2021/01/10 12:39:25;;;;;;;29.67;19.13;;;;;;;;;;4991749;28;20459;-77
2021/01/10 12:41:51;;;;;;;32.15;20.17;;;;;;;;;;4993795;28;20206;-80
2021/01/10 12:44:19;;;;;;;32.42;18.40;;;;;;;;;;4993731;28;20191;-76
2021/01/10 12:46:45;;;;;;;32.05;18.52;;;;;;;;;;4995740;28;20206;-76
2021/01/10 12:49:10;;;;;;;34.28;19.73;;;;;;;;;;4991300;28;20255;-76
2021/01/10 12:51:37;;;;;;;39.40;21.02;;;;;;;;;;5011887;28;20190;-76
2021/01/10 12:54:04;;;;;;;25.92;18.58;;;;;;;;;;4996533;28;20263;-77
2021/01/10 12:56:29;;;;;;;31.83;18.38;;;;;;;;;;5009947;28;20193;-77
2021/01/10 12:58:55;;;;;;;28.53;16.60;;;;;;;;;;5007067;28;20203;-75
2021/01/10 13:01:21;;;;;;;26.20;18.13;;;;;;;;;;4992998;28;20538;-75
2021/01/10 13:03:47;;;;;;;30.40;18.33;;;;;;;;;;4991526;28;20183;-77
2021/01/10 13:06:13;;;;;;;29.80;17.33;;;;;;;;;;4993736;28;20203;-78
2021/01/10 13:08:40;;;;;;;28.40;18.52;;;;;;;;;;4991559;28;20199;-77
2021/01/10 13:11:06;;;;;;;28.00;18.00;;;;;;;;;;4989466;28;20182;-77
2021/01/10 13:13:32;;;;;;;28.00;18.40;;;;;;;;;;4992043;28;20572;-76
2021/01/10 13:15:58;;;;;;;29.90;18.85;;;;;;;;;;5003105;28;20192;-77
2021/01/10 13:18:24;;;;;;;32.53;18.52;;;;;;;;;;5011455;28;20194;-77
2021/01/10 13:20:50;;;;;;;29.88;19.52;;;;;;;;;;5004338;28;20184;-77
2021/01/10 13:23:16;;;;;;;26.55;19.23;;;;;;;;;;4995909;28;20192;-77
2021/01/10 13:25:42;;;;;;;29.45;16.50;;;;;;;;;;4995373;28;20194;-77
2021/01/10 13:28:08;;;;;;;30.98;18.15;;;;;;;;;;4994917;28;20172;-76
2021/01/10 13:30:34;;;;;;;29.10;18.20;;;;;;;;;;5000976;28;20200;-77
2021/01/10 13:33:00;;;;;;;39.28;20.30;;;;;;;;;;5004459;28;20179;-77
2021/01/10 13:35:26;;;;;;;30.70;17.88;;;;;;;;;;5005031;28;20183;-77
2021/01/10 13:37:52;;;;;;;25.00;15.98;;;;;;;;;;5005694;28;20178;-77
2021/01/10 13:40:18;;;;;;;24.45;16.58;;;;;;;;;;5001002;28;20218;-77
2021/01/10 13:42:45;;;;;;;24.98;17.70;;;;;;;;;;5001352;28;20221;-77
2021/01/10 13:45:11;;;;;;;24.83;17.92;;;;;;;;;;5004778;28;20542;-78
2021/01/10 13:47:37;;;;;;;25.40;17.10;;;;;;;;;;5003225;28;20203;-77
2021/01/10 13:50:03;;;;;;;27.77;17.13;;;;;;;;;;5008391;28;20207;-77
2021/01/10 13:52:32;;;;;;;26.60;17.02;;;;;;;;;;5003944;28;20198;-76
2021/01/10 13:54:59;;;;;;;26.00;16.45;;;;;;;;;;5001229;28;20184;-77
2021/01/10 13:57:25;;;;;;;29.25;15.30;;;;;;;;;;5002655;28;20203;-77
2021/01/10 13:59:51;;;;;;;24.35;16.23;;;;;;;;;;5000728;28;20247;-76
2021/01/10 14:02:17;;;;;;;21.38;14.00;;;;;;;;;;4998997;28;20222;-77
2021/01/10 14:04:43;;;;;;;26.52;16.48;;;;;;;;;;5001551;28;20547;-77
2021/01/10 14:07:09;;;;;;;23.80;15.05;;;;;;;;;;5005134;28;20202;-77
2021/01/10 14:09:35;;;;;;;26.85;15.85;;;;;;;;;;5004988;28;20191;-76
2021/01/10 14:12:01;;;;;;;21.58;14.75;;;;;;;;;;5009298;28;20198;-77
2021/01/10 14:14:27;;;;;;;22.23;14.53;;;;;;;;;;5005620;28;20571;-76
2021/01/10 14:16:53;;;;;;;25.05;16.73;;;;;;;;;;4999359;28;20437;-76
2021/01/10 14:19:19;;;;;;;19.83;15.97;;;;;;;;;;5000368;28;20207;-77
2021/01/10 14:21:45;;;;;;;24.23;16.40;;;;;;;;;;4994961;28;20918;-76